Time;durP1;ratioP1;P1;durP2;ratioP2;P2;SDS_P1;SDS_P2;PMS_P1;PMS_P2;Temp;Humidity;BMP_temperature;BMP_pressure;BME280_temperature;BME280_humidity;BME280_pressure;Samples;Min_cycle;Max_cycle;Signal;HPM_P1;HPM_P2
2022/02/22 00:00:33;;;;;;;6.00;4.07;;;;;;;3.36;100.00;97297.31;5131880;27;20465;-44
2022/02/22 00:02:59;;;;;;;8.88;4.65;;;;;;;3.35;100.00;97300.78;5131747;27;20043;-46
2022/02/22 00:05:25;;;;;;;8.20;6.03;;;;;;;3.37;100.00;97304.13;5093782;27;20035;-44
2022/02/22 00:07:50;;;;;;;5.68;3.80;;;;;;;3.38;100.00;97305.78;5114805;27;20424;-44
2022/02/22 00:10:16;;;;;;;6.55;5.35;;;;;;;3.34;100.00;97298.28;5132036;27;20038;-44
2022/02/22 00:12:43;;;;;;;4.78;2.67;;;;;;;3.35;100.00;97308.47;5133482;27;20422;-44
2022/02/22 00:15:09;;;;;;;5.88;4.30;;;;;;;3.39;100.00;97298.94;5138303;27;20035;-45
2022/02/22 00:17:38;;;;;;;6.20;4.50;;;;;;;3.36;100.00;97302.44;5131472;27;20039;-43
2022/02/22 00:20:06;;;;;;;7.65;5.47;;;;;;;3.40;100.00;97309.09;5123143;27;20039;-45
2022/02/22 00:22:34;;;;;;;5.90;4.40;;;;;;;3.41;100.00;97310.78;5113584;27;20134;-45
2022/02/22 00:24:59;;;;;;;7.50;5.03;;;;;;;3.46;100.00;97325.16;5131371;27;20110;-44
2022/02/22 00:27:25;;;;;;;7.30;5.13;;;;;;;3.44;100.00;97299.56;5113126;27;20035;-43
2022/02/22 00:29:51;;;;;;;5.35;3.60;;;;;;;3.44;100.00;97294.44;5130678;27;20043;-44
2022/02/22 00:32:16;;;;;;;6.45;4.60;;;;;;;3.47;99.84;97293.44;5131553;27;20043;-43
2022/02/22 00:34:42;;;;;;;5.57;4.10;;;;;;;3.39;99.57;97273.25;5131683;27;20062;-44
2022/02/22 00:37:08;;;;;;;4.72;3.60;;;;;;;3.47;99.45;97296.84;5112784;27;20050;-45
2022/02/22 00:39:34;;;;;;;6.25;3.65;;;;;;;3.48;99.45;97285.69;5130620;27;20049;-44
2022/02/22 00:41:59;;;;;;;4.47;3.08;;;;;;;3.46;99.47;97271.22;5131372;27;20125;-44
2022/02/22 00:44:27;;;;;;;4.53;3.50;;;;;;;3.44;99.31;97265.34;5131138;27;20115;-45
2022/02/22 00:46:52;;;;;;;6.85;4.25;;;;;;;3.43;99.46;97267.06;5113072;27;20112;-43
2022/02/22 00:49:18;;;;;;;6.88;3.40;;;;;;;3.35;99.78;97252.00;5112577;27;20514;-45
2022/02/22 00:51:44;;;;;;;4.55;2.95;;;;;;;3.42;99.61;97273.09;5130777;27;20083;-44
2022/02/22 00:54:10;;;;;;;4.43;2.83;;;;;;;3.42;99.91;97271.38;5130406;27;20451;-44
2022/02/22 00:56:35;;;;;;;4.15;3.13;;;;;;;3.42;99.89;97280.81;5131052;27;20095;-44
2022/02/22 00:59:01;;;;;;;4.38;2.72;;;;;;;3.28;100.00;97283.16;5095776;28;20043;-44
2022/02/22 01:01:27;;;;;;;4.40;3.47;;;;;;;3.27;100.00;97261.78;5111342;27;20126;-45
2022/02/22 01:03:52;;;;;;;4.20;3.42;;;;;;;3.34;100.00;97262.34;5130847;27;20074;-43
2022/02/22 01:06:18;;;;;;;3.70;2.92;;;;;;;3.39;100.00;97263.81;5131129;27;20039;-44
2022/02/22 01:08:44;;;;;;;5.97;3.38;;;;;;;3.38;100.00;97248.47;5130294;27;20043;-44
2022/02/22 01:11:09;;;;;;;3.50;1.95;;;;;;;3.42;99.32;97253.41;5130919;27;20566;-43
2022/02/22 01:13:35;;;;;;;4.03;2.60;;;;;;;3.44;100.00;97252.50;5112015;27;20042;-43
2022/02/22 01:16:01;;;;;;;5.15;3.65;;;;;;;3.38;100.00;97235.63;5130820;27;20038;-43
2022/02/22 01:18:27;;;;;;;5.22;3.17;;;;;;;3.39;100.00;97238.13;5130818;28;20413;-45
2022/02/22 01:20:53;;;;;;;3.45;2.30;;;;;;;3.44;99.88;97249.94;5130540;28;20043;-45
2022/02/22 01:23:18;;;;;;;4.25;3.25;;;;;;;3.40;100.00;97239.78;5130857;27;20395;-43
2022/02/22 01:25:44;;;;;;;4.72;2.33;;;;;;;3.45;100.00;97246.47;5112307;28;20039;-44
2022/02/22 01:28:10;;;;;;;4.45;3.30;;;;;;;3.47;100.00;97248.06;5130539;28;20035;-43
2022/02/22 01:30:36;;;;;;;3.25;1.98;;;;;;;3.51;100.00;97270.13;5112534;27;20046;-44
2022/02/22 01:33:02;;;;;;;4.20;3.17;;;;;;;3.50;100.00;97247.94;5130371;28;20050;-44
2022/02/22 01:35:27;;;;;;;5.10;3.28;;;;;;;3.50;100.00;97249.66;5112511;28;20046;-43
2022/02/22 01:37:53;;;;;;;4.03;3.17;;;;;;;3.50;100.00;97265.06;5130543;28;20042;-45
2022/02/22 01:40:18;;;;;;;2.88;2.22;;;;;;;3.43;99.78;97256.78;5095201;28;20407;-45
2022/02/22 01:42:45;;;;;;;4.22;2.55;;;;;;;3.41;100.00;97256.03;5130760;28;20043;-46
2022/02/22 01:45:10;;;;;;;3.75;1.90;;;;;;;3.42;100.00;97258.53;5130134;28;20112;-44
2022/02/22 01:47:36;;;;;;;3.45;2.53;;;;;;;3.40;100.00;97256.94;5111963;28;20514;-44
2022/02/22 01:50:03;;;;;;;2.17;1.98;;;;;;;3.35;100.00;97248.59;5130219;28;20043;-45
2022/02/22 01:52:29;;;;;;;4.05;3.35;;;;;;;3.32;100.00;97244.44;5130280;28;20031;-44
2022/02/22 01:54:55;;;;;;;2.40;1.52;;;;;;;3.31;100.00;97239.34;5130597;28;20601;-43
2022/02/22 01:57:20;;;;;;;2.20;1.50;;;;;;;3.28;100.00;97273.72;5100671;28;20045;-44
2022/02/22 01:59:46;;;;;;;3.25;2.25;;;;;;;3.19;100.00;97245.88;5111847;28;20035;-43
2022/02/22 02:02:12;;;;;;;3.97;2.50;;;;;;;3.22;100.00;97238.03;5091693;28;20059;-43
2022/02/22 02:04:38;;;;;;;3.28;2.50;;;;;;;3.32;100.00;97233.31;5127001;27;20034;-44
2022/02/22 02:07:04;;;;;;;3.85;2.83;;;;;;;3.38;100.00;97226.19;5109281;28;20043;-43
2022/02/22 02:09:30;;;;;;;3.25;2.67;;;;;;;3.40;100.00;97228.69;5130234;28;20053;-43
2022/02/22 02:11:59;;;;;;;3.20;2.55;;;;;;;3.35;100.00;97216.03;5129877;28;20043;-44
2022/02/22 02:14:25;;;;;;;5.35;2.72;;;;;;;3.48;100.00;97234.31;5132297;27;20061;-44
2022/02/22 02:16:52;;;;;;;3.53;2.58;;;;;;;3.50;99.53;97224.81;5134120;27;20095;-43
2022/02/22 02:19:19;;;;;;;3.42;2.67;;;;;;;3.49;99.57;97224.88;5134015;27;20039;-44
2022/02/22 02:21:46;;;;;;;4.75;3.08;;;;;;;3.52;99.05;97222.16;5133958;27;20039;-45
2022/02/22 02:24:11;;;;;;;1.92;1.75;;;;;;;3.54;98.68;97210.91;5133682;27;20375;-43
2022/02/22 02:26:38;;;;;;;2.63;2.40;;;;;;;3.55;98.99;97215.16;5134057;27;20107;-42
2022/02/22 02:29:08;;;;;;;3.17;2.60;;;;;;;3.56;98.66;97205.72;5114936;27;20042;-43
2022/02/22 02:31:36;;;;;;;4.00;2.53;;;;;;;3.52;98.25;97215.28;5115803;27;20413;-42
2022/02/22 02:34:02;;;;;;;2.78;1.80;;;;;;;3.51;98.96;97221.31;5133851;27;20034;-43
2022/02/22 02:36:31;;;;;;;2.35;2.00;;;;;;;3.49;98.55;97212.03;5131803;27;20066;-43
2022/02/22 02:38:56;;;;;;;2.22;1.58;;;;;;;3.48;98.77;97213.75;5133610;27;20084;-43
2022/02/22 02:41:22;;;;;;;3.30;2.30;;;;;;;3.49;99.20;97215.44;5096225;27;20045;-43
2022/02/22 02:43:48;;;;;;;2.50;1.98;;;;;;;3.49;98.50;97214.59;5133739;27;20536;-45
2022/02/22 02:46:14;;;;;;;3.83;2.30;;;;;;;3.52;98.51;97211.88;5132442;27;20047;-43
2022/02/22 02:48:40;;;;;;;2.08;1.75;;;;;;;3.47;98.32;97213.81;5114817;27;20058;-44
2022/02/22 02:51:05;;;;;;;3.67;2.70;;;;;;;3.52;98.51;97220.41;5133576;27;20498;-45
2022/02/22 02:53:31;;;;;;;3.40;2.60;;;;;;;3.46;98.94;97210.41;5133216;27;20091;-43
2022/02/22 02:55:56;;;;;;;3.50;2.53;;;;;;;3.45;99.04;97228.50;5115189;27;20035;-45
2022/02/22 02:58:22;;;;;;;2.63;2.10;;;;;;;3.48;99.52;97224.03;5115570;27;20572;-44
2022/02/22 03:00:48;;;;;;;2.47;1.85;;;;;;;3.49;98.91;97215.44;5132547;27;20043;-45
2022/02/22 03:03:14;;;;;;;1.70;1.27;;;;;;;3.47;99.46;97219.81;5132802;27;20055;-43
2022/02/22 03:05:39;;;;;;;3.08;2.53;;;;;;;3.37;99.89;97195.44;5114890;27;20046;-45
2022/02/22 03:08:05;;;;;;;1.55;1.05;;;;;;;3.46;99.82;97218.13;5132864;27;20059;-47
2022/02/22 03:10:31;;;;;;;2.58;1.73;;;;;;;3.46;99.77;97214.72;5135016;27;20041;-44
2022/02/22 03:12:56;;;;;;;2.80;2.42;;;;;;;3.41;100.00;97213.19;5132267;27;20054;-43
2022/02/22 03:15:22;;;;;;;2.72;2.40;;;;;;;3.41;100.00;97207.22;5133225;27;20309;-43
2022/02/22 03:17:48;;;;;;;2.65;1.95;;;;;;;3.40;100.00;97208.97;5133084;27;20070;-45
2022/02/22 03:20:14;;;;;;;2.47;1.92;;;;;;;3.38;100.00;97203.09;5114122;27;20046;-44
2022/02/22 03:22:45;;;;;;;4.70;3.17;;;;;;;3.37;100.00;97206.53;5133029;27;20042;-43
2022/02/22 03:25:14;;;;;;;4.03;2.83;;;;;;;3.30;100.00;97200.00;5114241;27;20038;-44
2022/02/22 03:27:41;;;;;;;1.85;1.65;;;;;;;3.38;100.00;97207.38;5132958;27;20063;-46
2022/02/22 03:30:07;;;;;;;3.03;2.13;;;;;;;3.36;100.00;97212.56;5131235;27;20447;-45
2022/02/22 03:32:33;;;;;;;2.80;2.03;;;;;;;3.36;100.00;97198.91;5132332;27;20050;-43
2022/02/22 03:34:59;;;;;;;2.75;2.00;;;;;;;3.36;100.00;97193.78;5132713;27;20039;-45
2022/02/22 03:37:24;;;;;;;4.22;2.78;;;;;;;3.37;100.00;97187.75;5132547;27;20461;-45
2022/02/22 03:39:50;;;;;;;4.55;3.03;;;;;;;3.36;100.00;97186.91;5113688;27;20031;-44
2022/02/22 03:42:16;;;;;;;3.13;2.38;;;;;;;3.37;100.00;97182.59;5114145;27;20047;-44
2022/02/22 03:44:41;;;;;;;5.03;3.58;;;;;;;3.30;100.00;97169.19;5113630;27;20034;-45
2022/02/22 03:47:07;;;;;;;5.38;3.05;;;;;;;3.38;100.00;97185.09;5113954;27;20046;-42
2022/02/22 03:49:33;;;;;;;6.55;4.22;;;;;;;3.33;100.00;97169.09;5113294;27;20076;-45
2022/02/22 03:51:58;;;;;;;4.60;2.38;;;;;;;3.47;100.00;97186.41;5131726;27;20510;-43
2022/02/22 03:54:24;;;;;;;4.90;3.33;;;;;;;3.45;100.00;97189.97;5131943;27;20043;-44
2022/02/22 03:56:51;;;;;;;8.18;4.10;;;;;;;3.41;100.00;97189.25;5124036;27;20502;-44
2022/02/22 03:59:17;;;;;;;6.80;3.42;;;;;;;3.39;100.00;97191.09;5132226;27;20046;-44
2022/02/22 04:01:42;;;;;;;4.63;2.85;;;;;;;3.37;100.00;97188.56;5131780;27;20138;-44
2022/02/22 04:04:08;;;;;;;5.53;3.40;;;;;;;3.39;100.00;97196.22;5132325;27;20042;-46
2022/02/22 04:06:34;;;;;;;7.03;4.28;;;;;;;3.38;100.00;97204.81;5113411;27;20137;-42
2022/02/22 04:09:00;;;;;;;2.92;1.90;;;;;;;3.36;100.00;97216.88;5112764;27;20066;-44
2022/02/22 04:11:25;;;;;;;8.52;3.60;;;;;;;3.31;100.00;97204.25;5132281;27;20054;-43
2022/02/22 04:13:51;;;;;;;6.38;4.15;;;;;;;3.33;100.00;97199.06;5131533;27;20058;-44
2022/02/22 04:16:17;;;;;;;6.57;3.60;;;;;;;3.33;100.00;97206.75;5131608;27;20072;-44
2022/02/22 04:18:42;;;;;;;4.18;2.78;;;;;;;3.35;100.00;97203.22;5131820;27;20121;-45
2022/02/22 04:21:08;;;;;;;6.38;3.38;;;;;;;3.36;100.00;97212.56;5130489;27;20150;-43
2022/02/22 04:23:34;;;;;;;5.90;3.40;;;;;;;3.35;100.00;97205.78;5112837;27;20141;-45
2022/02/22 04:26:01;;;;;;;8.05;4.68;;;;;;;3.33;100.00;97210.16;5131192;27;20043;-44
2022/02/22 04:28:27;;;;;;;9.50;4.95;;;;;;;3.31;100.00;97198.28;5131596;27;20046;-45
2022/02/22 04:30:52;;;;;;;9.73;5.25;;;;;;;3.36;100.00;97198.91;5092841;28;20062;-44
2022/02/22 04:33:18;;;;;;;7.38;3.47;;;;;;;3.38;100.00;97212.53;5130511;27;20423;-44
2022/02/22 04:35:44;;;;;;;8.90;5.28;;;;;;;3.38;100.00;97209.94;5131578;27;20035;-44
2022/02/22 04:38:09;;;;;;;8.23;4.07;;;;;;;3.41;100.00;97199.53;5129833;27;20035;-43
2022/02/22 04:40:35;;;;;;;9.35;4.70;;;;;;;3.41;100.00;97205.50;5110655;27;20039;-44
2022/02/22 04:43:02;;;;;;;9.98;5.93;;;;;;;3.30;100.00;97199.19;5131458;27;20088;-44
2022/02/22 04:45:27;;;;;;;13.77;5.05;;;;;;;3.40;100.00;97219.22;5112247;27;20130;-44
2022/02/22 04:47:55;;;;;;;10.15;6.22;;;;;;;3.40;100.00;97213.28;5131059;27;20185;-43
2022/02/22 04:50:22;;;;;;;12.68;5.97;;;;;;;3.37;100.00;97221.13;5130859;27;20031;-44
2022/02/22 04:52:52;;;;;;;6.53;3.17;;;;;;;3.29;100.00;97220.66;5124325;27;20047;-45
2022/02/22 04:55:18;;;;;;;4.78;2.92;;;;;;;3.20;100.00;97234.69;5131154;27;20502;-46
2022/02/22 04:57:44;;;;;;;6.07;3.42;;;;;;;3.07;100.00;97222.47;5128988;27;20065;-44
2022/02/22 05:00:14;;;;;;;8.60;3.38;;;;;;;2.99;100.00;97239.03;5112542;27;20031;-45
2022/02/22 05:02:40;;;;;;;6.10;2.30;;;;;;;2.94;100.00;97228.13;5108769;28;20078;-47
2022/02/22 05:05:07;;;;;;;8.82;4.43;;;;;;;2.92;100.00;97224.81;5110482;28;20039;-44
2022/02/22 05:07:33;;;;;;;6.15;2.85;;;;;;;2.87;100.00;97224.19;5110293;28;20054;-46
2022/02/22 05:09:58;;;;;;;9.65;4.85;;;;;;;2.87;100.00;97236.19;5089569;28;20440;-47
2022/02/22 05:12:24;;;;;;;8.32;4.07;;;;;;;2.83;100.00;97230.34;5109291;28;20080;-45
2022/02/22 05:14:50;;;;;;;8.68;4.45;;;;;;;2.82;100.00;97230.41;5109758;28;20078;-46
2022/02/22 05:17:15;;;;;;;4.30;2.90;;;;;;;2.85;100.00;97241.38;5110363;28;20039;-47
2022/02/22 05:19:41;;;;;;;8.20;3.58;;;;;;;2.82;100.00;97245.81;5108582;28;20049;-49
2022/02/22 05:22:07;;;;;;;8.45;4.72;;;;;;;2.78;100.00;97245.09;5110515;28;20047;-45
2022/02/22 05:24:33;;;;;;;3.95;2.42;;;;;;;2.76;100.00;97251.19;5109304;28;20534;-45
2022/02/22 05:26:59;;;;;;;15.52;4.93;;;;;;;2.71;100.00;97250.56;5109915;28;20062;-47
2022/02/22 05:29:25;;;;;;;8.63;4.38;;;;;;;2.75;100.00;97252.09;5109291;28;20127;-43
2022/02/22 05:31:50;;;;;;;8.48;4.07;;;;;;;2.75;100.00;97252.09;5110971;28;20079;-44
2022/02/22 05:34:16;;;;;;;9.68;5.40;;;;;;;2.76;100.00;97269.16;5109034;28;20130;-44
2022/02/22 05:36:42;;;;;;;6.20;3.35;;;;;;;2.75;100.00;97264.91;5105759;28;20509;-45
2022/02/22 05:39:08;;;;;;;7.43;4.13;;;;;;;2.68;100.00;97276.31;5106684;28;20050;-44
2022/02/22 05:41:33;;;;;;;6.88;4.45;;;;;;;2.64;100.00;97272.22;5115695;28;20462;-47
2022/02/22 05:43:59;;;;;;;12.73;5.18;;;;;;;2.64;100.00;97269.66;5108715;28;20464;-44
2022/02/22 05:46:25;;;;;;;7.97;3.85;;;;;;;2.70;100.00;97275.38;5109705;28;20032;-44
2022/02/22 05:48:50;;;;;;;5.47;3.00;;;;;;;2.63;100.00;97278.25;5108564;27;20058;-45
2022/02/22 05:51:17;;;;;;;9.13;4.03;;;;;;;2.62;100.00;97276.59;5116551;27;20123;-44
2022/02/22 05:53:43;;;;;;;10.07;3.80;;;;;;;2.64;100.00;97285.88;5122674;27;20027;-45
2022/02/22 05:56:09;;;;;;;10.43;4.85;;;;;;;2.63;100.00;97286.78;5136731;27;20078;-45
2022/02/22 05:58:36;;;;;;;12.13;5.00;;;;;;;2.65;100.00;97284.97;5123426;27;20032;-45
2022/02/22 06:01:02;;;;;;;11.50;4.55;;;;;;;2.46;100.00;97282.31;5102289;27;20076;-45
2022/02/22 06:03:27;;;;;;;7.10;3.00;;;;;;;2.50;100.00;97294.16;5133431;27;20063;-45
2022/02/22 06:05:54;;;;;;;8.88;4.03;;;;;;;2.49;100.00;97309.59;5134366;27;20039;-44
2022/02/22 06:08:19;;;;;;;11.70;4.50;;;;;;;2.41;100.00;97309.88;5132869;27;20039;-45
2022/02/22 06:10:47;;;;;;;10.10;5.55;;;;;;;2.45;100.00;97315.72;5141140;27;20130;-45
2022/02/22 06:13:13;;;;;;;8.77;4.20;;;;;;;2.46;100.00;97319.97;5104951;27;20027;-44
2022/02/22 06:15:39;;;;;;;7.85;3.72;;;;;;;2.39;100.00;97321.09;5142748;27;20100;-43
2022/02/22 06:18:05;;;;;;;5.85;3.03;;;;;;;2.36;100.00;97336.59;5138257;27;20035;-45
2022/02/22 06:20:32;;;;;;;6.25;3.78;;;;;;;2.33;100.00;97327.31;5132873;27;20065;-47
2022/02/22 06:22:59;;;;;;;8.93;4.95;;;;;;;2.34;100.00;97334.09;5117988;27;20039;-48
2022/02/22 06:25:26;;;;;;;7.28;3.80;;;;;;;2.40;100.00;97331.31;5137596;27;20041;-45
2022/02/22 06:27:54;;;;;;;7.35;2.65;;;;;;;2.38;100.00;97345.06;5119256;27;20066;-46
2022/02/22 06:30:22;;;;;;;3.78;2.13;;;;;;;2.33;100.00;97340.13;5123819;27;20072;-46
2022/02/22 06:32:49;;;;;;;4.20;2.40;;;;;;;2.26;100.00;97325.03;5141892;27;20066;-51
2022/02/22 06:35:15;;;;;;;3.97;2.45;;;;;;;2.27;100.00;97324.13;5121424;27;20168;-47
2022/02/22 06:37:41;;;;;;;4.25;2.38;;;;;;;2.39;100.00;97350.13;5133674;27;20035;-46
2022/02/22 06:40:08;;;;;;;1.83;1.42;;;;;;;2.32;100.00;97353.00;5133921;27;20045;-47
2022/02/22 06:42:35;;;;;;;5.15;2.85;;;;;;;2.36;100.00;97382.72;5139274;27;20046;-44
2022/02/22 06:45:02;;;;;;;4.50;2.00;;;;;;;2.44;100.00;97367.91;5117597;27;20035;-44
2022/02/22 06:47:28;;;;;;;1.95;1.30;;;;;;;2.40;100.00;97376.63;5138504;27;20502;-44
2022/02/22 06:49:53;;;;;;;3.45;2.35;;;;;;;2.45;100.00;97383.25;5120799;27;20043;-44
2022/02/22 06:52:20;;;;;;;3.17;1.30;;;;;;;2.49;100.00;97383.94;5141831;27;20046;-49
2022/02/22 06:54:46;;;;;;;1.77;1.25;;;;;;;2.54;100.00;97382.03;5132884;27;20502;-44
2022/02/22 06:57:12;;;;;;;5.75;1.90;;;;;;;2.60;100.00;97371.53;5135162;27;20046;-46
2022/02/22 06:59:38;;;;;;;1.95;1.13;;;;;;;2.66;100.00;97368.72;5120286;27;20039;-47
2022/02/22 07:02:04;;;;;;;4.03;2.10;;;;;;;2.77;100.00;97384.53;5117875;27;20057;-49
2022/02/22 07:04:31;;;;;;;4.13;2.00;;;;;;;2.77;100.00;97370.88;5137457;27;20138;-45
2022/02/22 07:06:57;;;;;;;4.93;2.30;;;;;;;2.79;100.00;97357.06;5136488;27;20570;-43
2022/02/22 07:09:23;;;;;;;6.95;2.38;;;;;;;2.89;100.00;97383.19;5115206;27;20054;-41
2022/02/22 07:11:48;;;;;;;1.40;1.08;;;;;;;2.86;100.00;97389.28;5132246;27;20046;-42
2022/02/22 07:14:14;;;;;;;3.83;1.90;;;;;;;2.98;100.00;97387.97;5132440;27;20046;-42
2022/02/22 07:16:40;;;;;;;2.30;1.23;;;;;;;2.99;100.00;97382.75;5138758;27;20047;-41
2022/02/22 07:19:05;;;;;;;2.20;1.08;;;;;;;3.10;100.00;97386.59;5121703;27;20493;-43
2022/02/22 07:21:31;;;;;;;3.85;1.17;;;;;;;3.11;100.00;97398.53;5131948;27;20049;-42
2022/02/22 07:23:57;;;;;;;3.65;1.83;;;;;;;3.06;100.00;97388.47;5097853;27;20043;-39
2022/02/22 07:26:22;;;;;;;2.88;1.25;;;;;;;3.09;100.00;97395.22;5133880;27;20129;-43
2022/02/22 07:28:48;;;;;;;10.00;1.52;;;;;;;3.08;100.00;97403.81;5135032;27;20399;-43
2022/02/22 07:31:14;;;;;;;3.50;1.88;;;;;;;3.11;100.00;97401.94;5132199;27;20426;-42
2022/02/22 07:33:40;;;;;;;1.50;1.23;;;;;;;3.10;100.00;97381.47;5132426;27;20067;-43
2022/02/22 07:36:06;;;;;;;2.25;1.48;;;;;;;3.47;100.00;97409.84;5119298;27;20487;-42
2022/02/22 07:38:32;;;;;;;6.00;1.55;;;;;;;3.62;100.00;97413.50;5132332;27;20031;-42
2022/02/22 07:40:58;;;;;;;1.90;1.10;;;;;;;3.65;100.00;97396.22;5112465;27;20032;-41
2022/02/22 07:43:24;;;;;;;1.58;1.40;;;;;;;3.91;100.00;97371.94;5138024;27;20540;-42
2022/02/22 07:45:50;;;;;;;1.40;1.00;;;;;;;4.58;100.00;97397.16;5120064;27;20093;-44
2022/02/22 07:48:15;;;;;;;1.67;1.20;;;;;;;5.53;97.77;97389.03;5136804;27;20447;-42
2022/02/22 07:50:41;;;;;;;2.78;1.10;;;;;;;5.90;91.69;97403.47;5104882;27;20099;-42
2022/02/22 07:53:07;;;;;;;3.35;1.60;;;;;;;6.06;88.16;97395.75;5143755;27;20030;-42
2022/02/22 07:55:33;;;;;;;1.73;1.17;;;;;;;6.91;82.91;97407.38;5137100;27;20099;-42
2022/02/22 07:57:58;;;;;;;2.05;1.10;;;;;;;7.17;80.82;97398.19;5119294;27;21997;-41
2022/02/22 08:00:24;;;;;;;5.28;1.23;;;;;;;7.10;81.60;97423.53;5121098;27;20034;-43
2022/02/22 08:02:54;;;;;;;1.15;0.80;;;;;;;6.80;79.82;97420.09;5134135;27;20518;-43
2022/02/22 08:05:20;;;;;;;2.10;1.17;;;;;;;6.08;78.31;97420.53;5139806;27;20049;-42
2022/02/22 08:07:46;;;;;;;1.23;1.00;;;;;;;5.82;80.65;97415.88;5136977;27;20039;-42
2022/02/22 08:10:12;;;;;;;3.10;1.02;;;;;;;5.44;80.45;97425.56;5140958;27;20536;-43
2022/02/22 08:12:38;;;;;;;1.60;1.10;;;;;;;5.26;82.51;97432.44;5121935;27;20114;-42
2022/02/22 08:15:05;;;;;;;2.35;1.30;;;;;;;5.46;83.51;97431.47;5138286;27;20038;-42
2022/02/22 08:17:31;;;;;;;3.67;1.10;;;;;;;5.44;82.09;97423.00;5140519;27;20138;-41
2022/02/22 08:19:57;;;;;;;3.58;0.90;;;;;;;5.13;82.98;97424.47;5141730;27;20557;-42
2022/02/22 08:22:22;;;;;;;2.78;1.00;;;;;;;5.10;83.31;97439.25;5137182;27;20099;-42
2022/02/22 08:24:48;;;;;;;3.17;1.15;;;;;;;5.05;84.02;97442.06;5140371;27;20043;-42
2022/02/22 08:27:14;;;;;;;2.83;1.10;;;;;;;4.99;83.20;97442.34;5104145;27;20054;-42
2022/02/22 08:29:40;;;;;;;1.70;1.10;;;;;;;4.98;82.64;97453.53;5141018;27;20042;-41
2022/02/22 08:32:06;;;;;;;2.13;0.93;;;;;;;5.10;82.55;97431.53;5117367;27;20035;-41
2022/02/22 08:34:32;;;;;;;3.83;1.33;;;;;;;5.57;78.99;97443.81;5136978;27;20523;-41
2022/02/22 08:36:57;;;;;;;1.70;1.20;;;;;;;5.55;79.31;97431.00;5139700;27;20046;-43
2022/02/22 08:39:25;;;;;;;3.30;1.30;;;;;;;6.28;75.22;97443.53;5140332;27;20042;-42
2022/02/22 08:41:51;;;;;;;2.38;1.50;;;;;;;6.37;74.32;97431.91;5070064;27;20047;-42
2022/02/22 08:44:18;;;;;;;5.15;1.80;;;;;;;6.32;75.10;97431.31;5112936;27;20031;-45
2022/02/22 08:46:44;;;;;;;2.17;1.13;;;;;;;7.38;69.68;97435.69;5130108;27;20050;-43
2022/02/22 08:49:10;;;;;;;2.72;1.30;;;;;;;7.71;67.74;97439.84;5130151;27;20039;-44
2022/02/22 08:51:36;;;;;;;4.80;1.90;;;;;;;7.39;68.63;97436.53;5129924;27;20046;-44
2022/02/22 08:54:04;;;;;;;2.80;1.23;;;;;;;7.75;66.68;97443.91;5129902;27;20038;-47
2022/02/22 08:56:30;;;;;;;6.35;1.65;;;;;;;7.54;66.58;97454.56;5112650;27;20035;-45
2022/02/22 08:58:56;;;;;;;2.80;1.50;;;;;;;7.22;68.31;97455.59;5137103;27;20027;-45
2022/02/22 09:01:23;;;;;;;7.65;1.80;;;;;;;6.65;69.04;97452.72;5139722;27;20566;-45
2022/02/22 09:03:49;;;;;;;3.83;1.60;;;;;;;6.13;70.60;97470.13;5133879;27;20042;-46
2022/02/22 09:06:14;;;;;;;3.20;1.23;;;;;;;5.78;72.33;97479.66;5134236;27;20047;-45
2022/02/22 09:08:40;;;;;;;5.03;1.58;;;;;;;5.67;73.83;97481.09;5140519;27;20038;-45
2022/02/22 09:11:06;;;;;;;2.55;1.73;;;;;;;5.67;74.35;97488.81;5121622;27;20035;-49
2022/02/22 09:13:31;;;;;;;1.98;1.40;;;;;;;5.58;75.10;97484.97;5117491;27;20050;-47
2022/02/22 09:15:57;;;;;;;2.00;1.30;;;;;;;5.49;75.22;97482.84;5102532;27;20057;-45
2022/02/22 09:18:23;;;;;;;3.00;1.20;;;;;;;5.53;75.79;97481.78;5117619;27;20039;-48
2022/02/22 09:20:49;;;;;;;3.40;1.20;;;;;;;5.81;74.91;97476.09;5140065;27;20030;-46
2022/02/22 09:23:15;;;;;;;3.38;1.50;;;;;;;6.99;70.78;97461.22;5137659;27;20070;-47
2022/02/22 09:25:40;;;;;;;3.05;1.20;;;;;;;7.79;66.82;97469.53;5121737;27;20528;-46
2022/02/22 09:28:08;;;;;;;1.48;1.00;;;;;;;8.00;65.47;97481.19;5138527;27;20039;-46
2022/02/22 09:30:35;;;;;;;1.65;0.90;;;;;;;7.91;65.46;97486.06;5102229;27;20130;-47
2022/02/22 09:33:01;;;;;;;5.22;1.20;;;;;;;7.34;65.91;97485.06;5116520;27;20151;-46
2022/02/22 09:35:27;;;;;;;3.15;1.30;;;;;;;7.50;66.88;97476.34;5138484;27;20037;-49
2022/02/22 09:37:54;;;;;;;2.00;1.10;;;;;;;7.64;64.60;97463.47;5138480;27;20043;-46
2022/02/22 09:40:21;;;;;;;2.58;1.27;;;;;;;7.37;65.38;97474.56;5141614;27;20043;-45
2022/02/22 09:42:47;;;;;;;3.72;0.98;;;;;;;7.22;65.82;97482.25;5134377;27;20035;-45
2022/02/22 09:45:13;;;;;;;2.30;1.00;;;;;;;7.12;65.56;97480.25;5119294;27;20050;-44
2022/02/22 09:47:40;;;;;;;2.65;1.20;;;;;;;7.15;66.07;97480.94;5129052;27;20043;-42
2022/02/22 09:50:07;;;;;;;2.30;0.90;;;;;;;7.06;63.98;97502.13;5109554;28;20489;-44
2022/02/22 09:52:33;;;;;;;3.00;1.10;;;;;;;6.92;64.58;97473.63;5065518;28;20043;-43
2022/02/22 09:55:00;;;;;;;1.90;0.80;;;;;;;7.20;64.88;97496.19;5128682;28;20134;-44
2022/02/22 09:57:25;;;;;;;1.90;1.00;;;;;;;7.40;63.33;97519.16;5132547;27;20056;-43
2022/02/22 09:59:51;;;;;;;1.20;0.80;;;;;;;7.61;62.29;97507.59;5117676;27;20089;-42
2022/02/22 10:02:17;;;;;;;2.20;0.73;;;;;;;7.69;62.21;97491.66;5080763;28;20059;-43
2022/02/22 10:04:47;;;;;;;2.25;0.85;;;;;;;7.95;60.85;97485.81;5111846;28;20037;-44
2022/02/22 10:07:14;;;;;;;1.80;0.90;;;;;;;8.08;60.68;97491.91;5077292;28;20066;-44
2022/02/22 10:09:50;;;;;;;1.58;0.80;;;;;;;7.73;59.77;97472.47;5093249;28;20452;-44
2022/02/22 10:12:27;;;;;;;1.65;0.80;;;;;;;7.34;61.23;97491.06;5094418;28;20471;-44
2022/02/22 10:14:55;;;;;;;1.23;0.80;;;;;;;7.22;61.56;97490.00;5111484;28;20044;-42
2022/02/22 10:17:20;;;;;;;2.60;0.90;;;;;;;7.08;60.90;97489.09;5129647;28;20068;-44
2022/02/22 10:20:01;;;;;;;1.27;0.85;;;;;;;7.20;61.38;97509.09;5111371;28;20039;-44
2022/02/22 10:22:28;;;;;;;2.75;0.95;;;;;;;7.26;61.88;97497.59;5123488;28;20209;-44
2022/02/22 10:25:08;;;;;;;2.40;0.77;;;;;;;7.47;61.48;97504.97;5130453;27;20039;-41
2022/02/22 10:27:42;;;;;;;2.38;0.85;;;;;;;7.49;60.90;97495.38;5111682;28;20434;-43
2022/02/22 10:30:29;;;;;;;1.98;0.68;;;;;;;7.51;60.72;97487.53;5130294;27;20628;-43
2022/02/22 10:32:55;;;;;;;2.40;0.90;;;;;;;7.68;60.31;97474.47;5101407;28;20046;-43
2022/02/22 10:35:29;;;;;;;1.58;0.82;;;;;;;7.72;59.87;97488.88;5111208;27;20056;-43
2022/02/22 10:37:54;;;;;;;1.10;0.60;;;;;;;7.42;59.77;97483.72;5134018;27;20092;-42
2022/02/22 10:40:27;;;;;;;1.00;0.88;;;;;;;7.17;60.42;97465.38;5111602;27;20515;-43
2022/02/22 10:42:54;;;;;;;3.60;0.90;;;;;;;7.28;60.35;97481.06;5126977;27;20039;-44
2022/02/22 10:45:20;;;;;;;3.22;0.88;;;;;;;7.33;60.76;97476.47;5133968;27;20138;-45
2022/02/22 10:47:47;;;;;;;3.05;1.10;;;;;;;7.24;60.73;97474.41;5133480;27;20513;-44
2022/02/22 10:50:13;;;;;;;3.25;1.20;;;;;;;7.43;60.38;97480.22;5132680;27;20042;-44
2022/02/22 10:52:38;;;;;;;3.45;0.80;;;;;;;7.55;59.03;97484.69;5114724;27;20456;-45
2022/02/22 10:55:04;;;;;;;2.42;1.20;;;;;;;7.55;59.44;97482.09;5115086;27;20046;-42
2022/02/22 10:57:34;;;;;;;1.80;0.80;;;;;;;7.36;58.97;97498.75;5133206;27;20447;-43
2022/02/22 11:00:00;;;;;;;2.35;0.70;;;;;;;7.09;58.97;97475.28;5114463;27;20514;-43
2022/02/22 11:02:26;;;;;;;1.48;0.70;;;;;;;7.31;59.07;97472.34;5114521;27;20058;-43
2022/02/22 11:04:55;;;;;;;1.50;1.05;;;;;;;8.50;55.78;97479.91;5114459;27;20039;-43
2022/02/22 11:07:23;;;;;;;2.28;1.15;;;;;;;9.75;51.46;97481.38;5133348;27;20130;-44
2022/02/22 11:09:49;;;;;;;1.60;0.90;;;;;;;10.46;48.74;97474.88;5114527;27;20498;-43
2022/02/22 11:12:27;;;;;;;1.80;0.75;;;;;;;11.16;47.11;97473.31;5133044;27;20050;-43
2022/02/22 11:15:13;;;;;;;1.05;0.70;;;;;;;11.53;46.09;97481.06;5113993;27;20035;-44
2022/02/22 11:17:54;;;;;;;2.10;0.90;;;;;;;11.78;45.49;97470.53;5114559;27;20081;-42
2022/02/22 11:20:31;;;;;;;2.53;1.00;;;;;;;12.83;43.76;97465.88;5096287;27;20095;-45
2022/02/22 11:22:59;;;;;;;1.95;0.88;;;;;;;13.40;41.61;97472.63;5114543;27;20068;-43
2022/02/22 11:25:33;;;;;;;2.70;1.02;;;;;;;13.37;41.55;97445.00;5133195;27;20039;-45
2022/02/22 11:28:08;;;;;;;1.05;0.82;;;;;;;13.44;41.05;97455.78;5113724;27;20042;-44
2022/02/22 11:30:35;;;;;;;2.38;0.90;;;;;;;13.66;40.76;97458.28;5132984;27;20039;-45
2022/02/22 11:33:08;;;;;;;1.55;1.00;;;;;;;13.45;40.89;97471.31;5114114;27;20091;-45